[2025-03-05 00:00:00, 2025-03-05 23:59:59] previous next
| time | temperature | air pressure | humidity | solar radiation | wind speed |
|---|---|---|---|---|---|
| 2025-03-05 07:18:26 | 1.3 | 1016.1 | 99.0 | 23.0 | 0.0 |
| 2025-03-05 07:38:20 | 3.6 | 1016.4 | 98.0 | 28.1 | 0.0 |
| 2025-03-05 07:58:32 | 7.3 | 1016.4 | 85.0 | 32.2 | 0.0 |
| 2025-03-05 08:18:32 | 8.9 | 1016.1 | 72.0 | 35.4 | 0.0 |
| 2025-03-05 08:38:32 | 10.2 | 1016.1 | 67.0 | 37.3 | 1.0 |
| 2025-03-05 08:58:32 | 11.1 | 1016.1 | 63.0 | 42.6 | 2.0 |
| 2025-03-05 09:18:33 | 11.6 | 1016.1 | 63.0 | 53.5 | 1.1 |
| 2025-03-05 09:38:20 | 12.7 | 1016.1 | 61.0 | 69.0 | 2.1 |
| 2025-03-05 09:58:32 | 14.2 | 1016.1 | 58.0 | 92.2 | 2.5 |
| 2025-03-05 10:18:33 | 15.3 | 1016.1 | 55.0 | 47.3 | 0.4 |
| 2025-03-05 10:38:32 | 15.5 | 1015.8 | 55.0 | 87.1 | 0.3 |
| 2025-03-05 10:58:32 | 16.4 | 1015.8 | 52.0 | 195.9 | 0.6 |
| 2025-03-05 11:18:32 | 15.4 | 1015.8 | 52.0 | 242.8 | 1.7 |
| 2025-03-05 11:38:20 | 15.8 | 1015.4 | 50.0 | 282.8 | 1.5 |
| 2025-03-05 11:58:31 | 16.0 | 1015.4 | 51.0 | 300.1 | 0.6 |
| 2025-03-05 12:18:33 | 17.9 | 1015.1 | 48.0 | 309.4 | 1.5 |
| 2025-03-05 12:38:32 | 16.6 | 1015.1 | 48.0 | 312.5 | 0.4 |
| 2025-03-05 12:58:32 | 17.7 | 1015.1 | 46.0 | 314.7 | 0.0 |
| 2025-03-05 13:18:31 | 19.5 | 1014.4 | 45.0 | 310.8 | 0.0 |
| 2025-03-05 13:38:20 | 18.7 | 1014.4 | 46.0 | 302.3 | 0.0 |
| 2025-03-05 13:58:32 | 18.4 | 1014.4 | 47.0 | 293.2 | 0.7 |
| 2025-03-05 14:18:32 | 18.7 | 1014.1 | 47.0 | 286.1 | 0.7 |
| 2025-03-05 14:38:32 | 18.5 | 1014.1 | 47.0 | 272.4 | 0.6 |
| 2025-03-05 14:58:32 | 20.3 | 1013.7 | 44.0 | 260.8 | 1.1 |
| 2025-03-05 15:18:31 | 19.3 | 1013.7 | 47.0 | 238.7 | 0.0 |
| 2025-03-05 15:38:22 | 18.5 | 1013.4 | 48.0 | 211.9 | 1.1 |
| 2025-03-05 15:58:33 | 19.3 | 1013.4 | 46.0 | 176.7 | 0.0 |
CSV export: /station/IWELLEN5/data?period=20250305T000000/20250305T235959&format=csv&tz=GMT